createdAt,value
2023-03-07T00:02:10.121Z,-4.19
2023-03-07T00:04:45.730Z,-4.19
2023-03-07T00:07:18.782Z,-4.20
2023-03-07T00:09:49.705Z,-4.21
2023-03-07T00:12:22.140Z,-4.23
2023-03-07T00:14:53.764Z,-4.24
2023-03-07T00:17:27.904Z,-4.24
2023-03-07T00:19:59.345Z,-4.25
2023-03-07T00:22:30.423Z,-4.29
2023-03-07T00:24:59.885Z,-4.33
2023-03-07T00:27:32.846Z,-4.35
2023-03-07T00:30:06.382Z,-4.37
2023-03-07T00:32:38.961Z,-4.39
2023-03-07T00:35:09.332Z,-4.42
2023-03-07T00:37:39.131Z,-4.47
2023-03-07T00:40:10.144Z,-4.48
2023-03-07T00:42:41.622Z,-4.49
2023-03-07T00:45:13.905Z,-4.53
2023-03-07T00:47:45.299Z,-4.55
2023-03-07T00:50:17.452Z,-4.57
2023-03-07T00:52:48.152Z,-4.56
2023-03-07T00:55:18.801Z,-4.56
2023-03-07T00:57:48.407Z,-4.57
2023-03-07T01:00:20.847Z,-4.58
2023-03-07T01:02:52.763Z,-4.61
2023-03-07T01:05:22.125Z,-4.60
2023-03-07T01:07:56.493Z,-4.57
2023-03-07T01:10:29.707Z,-4.55
2023-03-07T01:13:01.381Z,-4.53
2023-03-07T01:16:15.299Z,-4.54
2023-03-07T01:18:49.311Z,-4.56
2023-03-07T01:21:26.898Z,-4.62
2023-03-07T01:23:58.270Z,-4.72
2023-03-07T01:26:31.136Z,-4.82
2023-03-07T01:29:05.148Z,-4.87
2023-03-07T01:31:37.524Z,-4.89
2023-03-07T01:34:09.005Z,-4.90
2023-03-07T01:36:43.318Z,-4.88
2023-03-07T01:39:16.081Z,-4.88
2023-03-07T01:42:01.522Z,-4.88
2023-03-07T01:44:54.986Z,-4.88
2023-03-07T01:47:28.706Z,-4.88
2023-03-07T01:50:02.726Z,-4.89
2023-03-07T01:52:43.538Z,-4.91
2023-03-07T01:55:19.458Z,-4.91
2023-03-07T01:57:52.812Z,-4.93
2023-03-07T02:00:29.303Z,-4.95
2023-03-07T02:03:07.775Z,-4.97
2023-03-07T02:05:48.193Z,-4.99
2023-03-07T02:08:21.026Z,-4.99
2023-03-07T02:10:51.913Z,-4.98
2023-03-07T02:13:22.452Z,-4.96
2023-03-07T02:16:19.709Z,-4.97
2023-03-07T02:18:50.902Z,-4.99
2023-03-07T02:21:34.806Z,-5.01
2023-03-07T02:24:30.901Z,-5.02
2023-03-07T02:27:00.452Z,-5.04
2023-03-07T02:29:29.732Z,-5.05
2023-03-07T02:32:00.721Z,-5.06
2023-03-07T02:34:31.862Z,-5.07
2023-03-07T02:37:26.664Z,-5.08
2023-03-07T02:40:00.484Z,-5.09
2023-03-07T02:42:36.866Z,-5.09
2023-03-07T02:45:14.584Z,-5.09
2023-03-07T02:47:46.332Z,-5.08
2023-03-07T02:50:20.057Z,-5.08
2023-03-07T02:52:55.559Z,-5.10
2023-03-07T02:55:25.696Z,-5.15
2023-03-07T02:58:00.474Z,-5.17
2023-03-07T03:00:33.002Z,-5.19
2023-03-07T03:03:02.596Z,-5.17
2023-03-07T03:05:33.406Z,-5.12
2023-03-07T03:08:03.444Z,-5.09
2023-03-07T03:10:33.698Z,-5.04
2023-03-07T03:13:04.949Z,-5.00
2023-03-07T03:15:35.872Z,-4.98
2023-03-07T03:18:05.968Z,-4.96
2023-03-07T03:20:41.527Z,-4.94
2023-03-07T03:23:13.507Z,-4.93
2023-03-07T03:25:44.877Z,-4.89
2023-03-07T03:28:16.155Z,-4.86
2023-03-07T03:30:46.486Z,-4.83
2023-03-07T03:33:17.852Z,-4.81
2023-03-07T03:35:53.958Z,-4.80
2023-03-07T03:38:24.265Z,-4.82
2023-03-07T03:40:55.704Z,-4.82
2023-03-07T03:43:25.732Z,-4.82
2023-03-07T03:45:58.994Z,-4.83
2023-03-07T03:48:32.878Z,-4.83
2023-03-07T03:51:10.986Z,-4.83
2023-03-07T03:53:41.146Z,-4.85
2023-03-07T03:56:14.969Z,-4.88
2023-03-07T03:58:45.466Z,-4.86
2023-03-07T04:01:15.499Z,-4.83
2023-03-07T04:03:48.055Z,-4.81
2023-03-07T04:06:24.385Z,-4.81
2023-03-07T04:08:56.548Z,-4.82
2023-03-07T04:11:30.268Z,-4.84
2023-03-07T04:14:03.391Z,-4.86
2023-03-07T04:16:34.973Z,-4.88
2023-03-07T04:19:05.218Z,-4.87
2023-03-07T04:21:39.486Z,-4.87
2023-03-07T04:24:10.350Z,-4.89
2023-03-07T04:26:41.054Z,-4.92
2023-03-07T04:29:11.426Z,-4.94
2023-03-07T04:31:49.362Z,-4.99
2023-03-07T04:34:21.659Z,-5.02
2023-03-07T04:36:53.879Z,-5.08
2023-03-07T04:39:24.544Z,-5.12
2023-03-07T04:41:54.114Z,-5.15
2023-03-07T04:44:27.985Z,-5.21
2023-03-07T04:46:57.606Z,-5.26
2023-03-07T04:49:30.199Z,-5.30
2023-03-07T04:52:02.811Z,-5.35
2023-03-07T04:54:33.382Z,-5.39
2023-03-07T04:57:04.893Z,-5.43
2023-03-07T04:59:39.436Z,-5.46
2023-03-07T05:02:13.961Z,-5.47
2023-03-07T05:04:44.584Z,-5.48
2023-03-07T05:07:14.378Z,-5.49
2023-03-07T05:09:46.235Z,-5.51
2023-03-07T05:12:17.261Z,-5.53
2023-03-07T05:14:48.641Z,-5.53
2023-03-07T05:17:20.572Z,-5.50
2023-03-07T05:19:55.338Z,-5.49
2023-03-07T05:22:27.243Z,-5.48
2023-03-07T05:24:59.141Z,-5.48
2023-03-07T05:27:30.507Z,-5.48
2023-03-07T05:30:01.211Z,-5.50
2023-03-07T05:32:31.586Z,-5.50
2023-03-07T05:35:03.450Z,-5.52
2023-03-07T05:37:34.293Z,-5.51
2023-03-07T05:40:10.604Z,-5.50
2023-03-07T05:42:46.433Z,-5.51
2023-03-07T05:45:17.432Z,-5.53
2023-03-07T05:47:48.974Z,-5.56
2023-03-07T05:50:21.643Z,-5.60
2023-03-07T05:52:54.024Z,-5.63
2023-03-07T05:55:28.856Z,-5.66
2023-03-07T05:57:59.104Z,-5.63
2023-03-07T06:00:32.161Z,-5.56
2023-03-07T06:03:05.540Z,-5.47
2023-03-07T06:05:37.454Z,-5.39
2023-03-07T06:08:08.384Z,-5.31
2023-03-07T06:10:40.464Z,-5.20
2023-03-07T06:13:22.248Z,-5.13
2023-03-07T06:16:20.845Z,-5.02
2023-03-07T06:18:55.148Z,-4.90
2023-03-07T06:21:25.505Z,-4.71
2023-03-07T06:23:58.760Z,-4.58
2023-03-07T06:26:29.969Z,-4.43
2023-03-07T06:29:00.703Z,-4.15
2023-03-07T06:31:31.856Z,-3.87
2023-03-07T06:34:03.886Z,-3.54
2023-03-07T06:36:35.309Z,-3.22
2023-03-07T06:39:06.652Z,-3.18
2023-03-07T06:41:37.473Z,-3.18
2023-03-07T06:44:08.014Z,-2.96
2023-03-07T06:46:39.494Z,-2.78
2023-03-07T06:49:14.487Z,-2.78
2023-03-07T06:51:45.735Z,-2.71
2023-03-07T06:54:16.443Z,-2.58
2023-03-07T06:56:47.144Z,-2.22
2023-03-07T06:59:21.077Z,-2.01
2023-03-07T07:01:53.814Z,-1.73
2023-03-07T07:04:26.586Z,-1.51
2023-03-07T07:06:56.573Z,-1.51
2023-03-07T07:09:26.869Z,-0.81
2023-03-07T07:11:59.720Z,0.69
2023-03-07T07:14:34.469Z,1.53
2023-03-07T07:17:05.516Z,2.04
2023-03-07T07:19:37.422Z,2.83
2023-03-07T07:22:12.285Z,3.30
2023-03-07T07:24:42.480Z,3.81
2023-03-07T07:27:12.704Z,4.13
2023-03-07T07:29:43.335Z,4.41
2023-03-07T07:32:14.109Z,4.95
2023-03-07T07:34:45.227Z,4.74
2023-03-07T07:37:14.884Z,4.56
2023-03-07T07:39:45.678Z,4.70
2023-03-07T07:42:15.716Z,4.90
2023-03-07T07:44:57.734Z,6.20
2023-03-07T07:47:28.202Z,7.13
2023-03-07T07:50:00.919Z,7.49
2023-03-07T07:52:36.064Z,8.27
2023-03-07T07:55:08.140Z,7.85
2023-03-07T07:57:38.185Z,6.64
2023-03-07T08:00:10.863Z,5.45
2023-03-07T08:02:43.991Z,4.45
2023-03-07T08:05:15.560Z,3.67
2023-03-07T08:07:47.318Z,3.20
2023-03-07T08:10:18.942Z,2.79
2023-03-07T08:12:53.578Z,2.36
2023-03-07T08:15:51.154Z,1.91
2023-03-07T08:18:21.840Z,1.79
2023-03-07T08:20:51.783Z,1.80
2023-03-07T08:23:25.609Z,1.91
2023-03-07T08:25:56.611Z,2.18
2023-03-07T08:28:29.456Z,2.08
2023-03-07T08:31:16.823Z,1.73
2023-03-07T08:33:51.011Z,1.63
2023-03-07T08:36:21.658Z,2.00
2023-03-07T08:38:55.523Z,1.48
2023-03-07T08:41:26.924Z,0.99
2023-03-07T08:43:56.344Z,0.54
2023-03-07T08:46:27.970Z,0.21
2023-03-07T08:49:00.056Z,0.02
2023-03-07T08:51:31.289Z,-0.18
2023-03-07T08:54:02.217Z,-0.31
2023-03-07T08:56:33.202Z,-0.38
2023-03-07T08:59:03.798Z,-0.31
2023-03-07T09:01:36.177Z,1.06
2023-03-07T09:04:06.318Z,3.68
2023-03-07T09:06:38.114Z,5.80
2023-03-07T09:09:09.657Z,7.19
2023-03-07T09:11:41.968Z,7.65
2023-03-07T09:14:12.437Z,7.63
2023-03-07T09:16:43.937Z,7.79
2023-03-07T09:19:18.110Z,7.65
2023-03-07T09:21:50.101Z,7.04
2023-03-07T09:24:21.580Z,6.02
2023-03-07T09:26:51.547Z,4.87
2023-03-07T09:29:23.088Z,3.75
2023-03-07T09:31:52.694Z,3.06
2023-03-07T09:34:25.294Z,2.66
2023-03-07T09:36:57.981Z,2.29
2023-03-07T09:39:28.904Z,1.86
2023-03-07T09:42:36.030Z,1.65
2023-03-07T09:45:19.543Z,1.50
2023-03-07T09:48:43.605Z,1.29
2023-03-07T09:51:46.114Z,1.12
2023-03-07T09:54:22.243Z,0.96
2023-03-07T09:57:03.481Z,0.78
2023-03-07T09:59:40.778Z,0.60
2023-03-07T10:02:46.074Z,0.53
2023-03-07T10:05:44.609Z,0.44
2023-03-07T10:08:23.327Z,0.39
2023-03-07T10:11:12.045Z,0.39
2023-03-07T10:14:01.655Z,0.47
2023-03-07T10:16:59.023Z,0.54
2023-03-07T10:19:50.368Z,0.70
2023-03-07T10:25:46.512Z,1.20
2023-03-07T10:28:37.076Z,1.53
2023-03-07T10:31:37.471Z,1.43
2023-03-07T10:34:30.761Z,1.24
2023-03-07T10:37:14.393Z,1.19
2023-03-07T10:40:18.912Z,1.10
2023-03-07T10:42:50.059Z,1.02
2023-03-07T10:45:20.180Z,0.94
2023-03-07T10:47:53.598Z,0.81
2023-03-07T10:50:30.362Z,0.70
2023-03-07T10:53:03.391Z,0.64
2023-03-07T10:55:44.664Z,0.55
2023-03-07T10:58:30.366Z,0.44
2023-03-07T11:01:01.928Z,0.39
2023-03-07T11:03:51.872Z,0.40
2023-03-07T11:06:45.188Z,0.39
2023-03-07T11:09:31.972Z,0.39
2023-03-07T11:12:05.153Z,0.37
2023-03-07T11:14:54.024Z,0.36
2023-03-07T11:17:43.755Z,0.36
2023-03-07T11:20:23.065Z,0.34
2023-03-07T11:23:35.333Z,0.30
2023-03-07T11:26:24.996Z,0.29
2023-03-07T11:29:14.894Z,0.31
2023-03-07T11:32:12.551Z,0.35
2023-03-07T11:34:59.760Z,0.38
2023-03-07T11:37:35.390Z,0.41
2023-03-07T11:40:25.263Z,0.45
2023-03-07T11:43:36.084Z,0.51
2023-03-07T11:46:18.782Z,0.60
2023-03-07T11:49:05.426Z,0.73
2023-03-07T11:51:43.980Z,0.92
2023-03-07T11:54:27.466Z,1.16
2023-03-07T11:57:03.857Z,1.44
2023-03-07T12:00:01.799Z,1.76
2023-03-07T12:03:12.706Z,2.02
2023-03-07T12:05:56.953Z,2.15
2023-03-07T12:08:44.136Z,2.29
2023-03-07T12:11:20.397Z,2.39
2023-03-07T12:14:08.981Z,2.41
2023-03-07T12:17:28.879Z,2.26
2023-03-07T12:20:24.277Z,2.09
2023-03-07T12:23:07.356Z,1.91
2023-03-07T12:25:44.481Z,1.78
2023-03-07T12:28:23.389Z,1.70
2023-03-07T12:31:17.724Z,1.66
2023-03-07T12:33:55.835Z,1.61
2023-03-07T12:36:55.566Z,1.56
2023-03-07T12:39:51.047Z,1.48
2023-03-07T12:42:39.878Z,1.42
2023-03-07T12:45:13.519Z,1.39
2023-03-07T12:47:59.213Z,1.35
2023-03-07T12:50:50.430Z,1.33
2023-03-07T12:53:46.966Z,1.33
2023-03-07T12:56:34.794Z,1.34
2023-03-07T12:59:17.034Z,1.35
2023-03-07T13:02:00.016Z,1.33
2023-03-07T13:04:38.626Z,1.33
2023-03-07T13:07:27.058Z,1.34
2023-03-07T13:10:00.470Z,1.32
2023-03-07T13:12:30.508Z,1.34
2023-03-07T13:16:16.357Z,1.37
2023-03-07T13:18:46.529Z,1.43
2023-03-07T13:21:46.313Z,1.46
2023-03-07T13:24:40.557Z,1.50
2023-03-07T13:27:20.705Z,1.56
2023-03-07T13:30:31.087Z,1.58
2023-03-07T13:33:06.165Z,1.61
2023-03-07T13:35:38.675Z,1.64
2023-03-07T13:38:49.309Z,1.69
2023-03-07T13:41:48.375Z,1.77
2023-03-07T13:44:38.272Z,1.85
2023-03-07T13:47:44.390Z,1.92
2023-03-07T13:50:35.060Z,1.96
2023-03-07T13:53:33.896Z,2.01
2023-03-07T13:56:41.976Z,2.04
2023-03-07T13:59:29.131Z,2.05
2023-03-07T14:02:18.486Z,2.06
2023-03-07T14:04:54.820Z,2.06
2023-03-07T14:07:37.678Z,2.06
2023-03-07T14:10:22.864Z,2.06
2023-03-07T14:13:01.534Z,2.05
2023-03-07T14:16:03.648Z,2.06
2023-03-07T14:18:51.337Z,2.08
2023-03-07T14:21:33.828Z,2.09
2023-03-07T14:24:36.036Z,2.08
2023-03-07T14:27:17.300Z,2.07
2023-03-07T14:30:01.075Z,2.07
2023-03-07T14:32:35.798Z,2.05
2023-03-07T14:35:07.076Z,2.03
2023-03-07T14:37:36.859Z,2.02
2023-03-07T14:40:33.763Z,2.03
2023-03-07T14:43:36.504Z,2.04
2023-03-07T14:46:54.825Z,2.06
2023-03-07T14:49:42.714Z,2.07
2023-03-07T14:52:29.679Z,2.05
2023-03-07T14:55:03.943Z,2.03
2023-03-07T14:57:46.887Z,2.03
2023-03-07T15:00:21.366Z,2.01
2023-03-07T15:02:56.620Z,2.00
2023-03-07T15:05:38.154Z,1.98
2023-03-07T15:08:27.414Z,1.96
2023-03-07T15:11:07.126Z,1.93
2023-03-07T15:13:46.836Z,1.92
2023-03-07T15:16:32.716Z,1.92
2023-03-07T15:19:12.394Z,1.90
2023-03-07T15:21:53.113Z,1.90
2023-03-07T15:24:31.579Z,1.90
2023-03-07T15:27:07.102Z,1.90
2023-03-07T15:29:42.677Z,1.90
2023-03-07T15:32:40.481Z,1.88
2023-03-07T15:35:19.024Z,1.86
2023-03-07T15:38:06.569Z,1.84
2023-03-07T15:40:47.167Z,1.83
2023-03-07T15:43:29.473Z,1.81
2023-03-07T15:46:28.590Z,1.81
2023-03-07T15:49:01.705Z,1.80
2023-03-07T15:51:39.317Z,1.81
2023-03-07T15:54:36.520Z,1.82
2023-03-07T15:57:20.258Z,1.82
2023-03-07T15:59:56.764Z,1.81
2023-03-07T16:02:49.735Z,1.80
2023-03-07T16:05:23.731Z,1.80
2023-03-07T16:07:58.208Z,1.81
2023-03-07T16:10:34.201Z,1.80
2023-03-07T16:13:04.541Z,1.80
2023-03-07T16:15:37.606Z,1.79
2023-03-07T16:18:08.223Z,1.76
2023-03-07T16:20:39.928Z,1.73
2023-03-07T16:23:13.697Z,1.69
2023-03-07T16:25:45.574Z,1.67
2023-03-07T16:28:15.986Z,1.66
2023-03-07T16:30:49.688Z,1.64
2023-03-07T16:33:23.872Z,1.62
2023-03-07T16:35:54.782Z,1.58
2023-03-07T16:38:27.911Z,1.56
2023-03-07T16:40:59.687Z,1.54
2023-03-07T16:43:41.504Z,1.53
2023-03-07T16:47:29.569Z,1.48
2023-03-07T16:50:00.170Z,1.42
2023-03-07T16:52:36.320Z,1.37
2023-03-07T16:55:05.984Z,1.33
2023-03-07T16:57:37.633Z,1.30
2023-03-07T17:00:08.943Z,1.29
2023-03-07T17:02:39.373Z,1.26
2023-03-07T17:05:28.175Z,1.23
2023-03-07T17:08:00.341Z,1.20
2023-03-07T17:10:32.195Z,1.19
2023-03-07T17:13:04.415Z,1.17
2023-03-07T17:15:35.628Z,1.15
2023-03-07T17:18:06.157Z,1.13
2023-03-07T17:20:36.195Z,1.12
2023-03-07T17:23:07.175Z,1.12
2023-03-07T17:25:40.193Z,1.12
2023-03-07T17:28:20.146Z,1.12
2023-03-07T17:30:52.095Z,1.13
2023-03-07T17:33:22.405Z,1.13
2023-03-07T17:35:52.358Z,1.15
2023-03-07T17:38:24.663Z,1.18
2023-03-07T17:40:58.556Z,1.20
2023-03-07T17:43:29.409Z,1.24
2023-03-07T17:46:11.443Z,1.26
2023-03-07T17:48:43.977Z,1.28
2023-03-07T17:51:18.534Z,1.31
2023-03-07T17:53:53.138Z,1.34
2023-03-07T17:56:31.299Z,1.40
2023-03-07T17:59:03.937Z,1.44
2023-03-07T18:01:40.398Z,1.46
2023-03-07T18:04:12.479Z,1.46
2023-03-07T18:06:43.977Z,1.47
2023-03-07T18:09:16.370Z,1.50
2023-03-07T18:11:50.700Z,1.53
2023-03-07T18:14:23.968Z,1.55
2023-03-07T18:16:58.522Z,1.59
2023-03-07T18:19:33.575Z,1.63
2023-03-07T18:22:06.974Z,1.65
2023-03-07T18:24:38.452Z,1.68
2023-03-07T18:27:09.776Z,1.70
2023-03-07T18:29:44.549Z,1.74
2023-03-07T18:32:20.297Z,1.79
2023-03-07T18:34:52.833Z,1.82
2023-03-07T18:37:26.928Z,1.88
2023-03-07T18:40:00.800Z,1.93
2023-03-07T18:42:36.289Z,1.98
2023-03-07T18:45:13.100Z,2.04
2023-03-07T18:47:47.191Z,2.10
2023-03-07T18:50:21.221Z,2.15
2023-03-07T18:52:54.401Z,2.19
2023-03-07T18:55:27.340Z,2.23
2023-03-07T18:58:01.401Z,2.26
2023-03-07T19:00:34.335Z,2.26
2023-03-07T19:03:09.462Z,2.24
2023-03-07T19:05:54.202Z,2.25
2023-03-07T19:08:27.604Z,2.23
2023-03-07T19:11:02.924Z,2.21
2023-03-07T19:13:37.093Z,2.17
2023-03-07T19:16:15.431Z,2.09
2023-03-07T19:18:49.480Z,1.95
2023-03-07T19:21:30.004Z,1.84
2023-03-07T19:24:08.072Z,1.81
2023-03-07T19:26:41.491Z,1.82
2023-03-07T19:29:14.519Z,1.79
2023-03-07T19:31:48.058Z,1.74
2023-03-07T19:34:24.060Z,1.69
2023-03-07T19:37:00.964Z,1.58
2023-03-07T19:39:34.626Z,1.56
2023-03-07T19:42:08.932Z,1.57
2023-03-07T19:44:40.735Z,1.55
2023-03-07T19:47:16.542Z,1.40
2023-03-07T19:49:51.832Z,1.41
2023-03-07T19:52:26.030Z,1.30
2023-03-07T19:55:01.734Z,1.26
2023-03-07T19:57:47.691Z,1.20
2023-03-07T20:00:22.211Z,1.01
2023-03-07T20:03:03.520Z,0.88
2023-03-07T20:05:36.668Z,0.76
2023-03-07T20:08:09.777Z,0.65
2023-03-07T20:10:53.829Z,0.59
2023-03-07T20:13:42.023Z,0.56
2023-03-07T20:16:18.621Z,0.51
2023-03-07T20:18:53.791Z,0.45
2023-03-07T20:21:30.449Z,0.40
2023-03-07T20:24:06.235Z,0.41
2023-03-07T20:26:42.258Z,0.42
2023-03-07T20:29:17.222Z,0.44
2023-03-07T20:31:53.101Z,0.46
2023-03-07T20:34:30.203Z,0.48
2023-03-07T20:37:06.183Z,0.49
2023-03-07T20:39:50.560Z,0.48
2023-03-07T20:42:30.447Z,0.46
2023-03-07T20:45:12.131Z,0.46
2023-03-07T20:47:48.332Z,0.44
2023-03-07T20:50:25.868Z,0.42
2023-03-07T20:53:01.533Z,0.40
2023-03-07T20:55:38.576Z,0.39
2023-03-07T20:58:24.480Z,0.38
2023-03-07T21:00:57.711Z,0.35
2023-03-07T21:03:30.709Z,0.35
2023-03-07T21:06:07.526Z,0.34
2023-03-07T21:08:42.649Z,0.34
2023-03-07T21:11:19.039Z,0.34
2023-03-07T21:13:51.333Z,0.34
2023-03-07T21:16:24.723Z,0.35
2023-03-07T21:19:04.346Z,0.34
2023-03-07T21:21:37.361Z,0.35
2023-03-07T21:24:17.368Z,0.34
2023-03-07T21:26:49.921Z,0.34
2023-03-07T21:29:22.774Z,0.36
2023-03-07T21:32:00.006Z,0.35
2023-03-07T21:34:35.039Z,0.29
2023-03-07T21:37:07.255Z,0.26
2023-03-07T21:39:39.258Z,0.26
2023-03-07T21:42:13.390Z,0.27
2023-03-07T21:44:44.313Z,0.27
2023-03-07T21:47:20.812Z,0.25
2023-03-07T21:49:55.389Z,0.24
2023-03-07T21:52:30.261Z,0.22
2023-03-07T21:55:04.266Z,0.20
2023-03-07T21:57:35.165Z,0.20
2023-03-07T22:00:10.699Z,0.21
2023-03-07T22:02:42.783Z,0.23
2023-03-07T22:05:13.252Z,0.24
2023-03-07T22:07:44.686Z,0.25
2023-03-07T22:10:17.935Z,0.23
2023-03-07T22:12:47.243Z,0.22
2023-03-07T22:15:22.444Z,0.22
2023-03-07T22:17:52.385Z,0.21
2023-03-07T22:20:26.640Z,0.20
2023-03-07T22:22:59.334Z,0.19
2023-03-07T22:25:30.542Z,0.18
2023-03-07T22:28:04.041Z,0.18
2023-03-07T22:30:34.243Z,0.17
2023-03-07T22:33:04.891Z,0.18
2023-03-07T22:35:51.053Z,0.19
2023-03-07T22:38:33.057Z,0.18
2023-03-07T22:41:42.297Z,0.19
2023-03-07T22:44:28.588Z,0.20
2023-03-07T22:47:19.790Z,0.21
2023-03-07T22:49:54.302Z,0.22
2023-03-07T22:52:26.008Z,0.21
2023-03-07T22:54:59.719Z,0.19
2023-03-07T22:57:31.305Z,0.17
2023-03-07T23:00:03.802Z,0.16
2023-03-07T23:02:34.688Z,0.16
2023-03-07T23:05:06.044Z,0.14
2023-03-07T23:07:40.940Z,0.14
2023-03-07T23:10:15.715Z,0.13
2023-03-07T23:12:45.324Z,0.14
2023-03-07T23:15:19.325Z,0.14
2023-03-07T23:17:50.265Z,0.14
2023-03-07T23:20:25.919Z,0.13
2023-03-07T23:22:57.745Z,0.12
2023-03-07T23:25:29.406Z,0.12
2023-03-07T23:27:59.644Z,0.15
2023-03-07T23:30:30.144Z,0.14
2023-03-07T23:33:01.302Z,0.15
2023-03-07T23:35:34.256Z,0.17
2023-03-07T23:38:05.138Z,0.16
2023-03-07T23:40:37.638Z,0.15
2023-03-07T23:43:07.939Z,0.15
2023-03-07T23:45:40.877Z,0.14
2023-03-07T23:48:13.813Z,0.15
2023-03-07T23:50:44.256Z,0.15
2023-03-07T23:53:15.060Z,0.14
2023-03-07T23:55:47.545Z,0.13
2023-03-07T23:58:18.354Z,0.12
